createdAt,value
2018-12-30T00:00:38.389Z,92.70
2018-12-30T00:03:07.420Z,92.70
2018-12-30T00:05:36.532Z,92.60
2018-12-30T00:08:05.189Z,92.60
2018-12-30T00:10:33.841Z,92.40
2018-12-30T00:13:02.499Z,92.50
2018-12-30T00:15:31.763Z,92.70
2018-12-30T00:18:00.412Z,92.60
2018-12-30T00:20:29.054Z,92.60
2018-12-30T00:22:57.709Z,92.70
2018-12-30T00:25:26.380Z,92.90
2018-12-30T00:27:55.223Z,92.60
2018-12-30T00:30:23.885Z,92.70
2018-12-30T00:32:52.538Z,92.60
2018-12-30T00:35:21.213Z,92.60
2018-12-30T00:37:49.869Z,92.90
2018-12-30T00:40:18.623Z,92.80
2018-12-30T00:42:47.234Z,92.70
2018-12-30T00:45:15.873Z,92.70
2018-12-30T00:47:44.531Z,92.80
2018-12-30T00:50:13.172Z,92.80
2018-12-30T00:52:41.843Z,93.00
2018-12-30T00:55:11.108Z,92.70
2018-12-30T00:57:39.766Z,92.70
2018-12-30T01:00:08.515Z,92.70
2018-12-30T01:02:37.175Z,92.70
2018-12-30T01:05:05.920Z,93.00
2018-12-30T01:07:34.731Z,92.40
2018-12-30T01:10:03.612Z,92.30
2018-12-30T01:12:32.294Z,92.30
2018-12-30T01:15:00.929Z,92.60
2018-12-30T01:17:29.572Z,92.80
2018-12-30T01:19:58.284Z,92.70
2018-12-30T01:22:27.539Z,92.40
2018-12-30T01:24:56.132Z,92.60
2018-12-30T01:27:24.786Z,92.40
2018-12-30T01:29:53.456Z,92.40
2018-12-30T01:32:22.578Z,92.20
2018-12-30T01:34:51.240Z,92.20
2018-12-30T01:37:19.822Z,92.30
2018-12-30T01:39:48.484Z,92.40
2018-12-30T01:42:17.053Z,92.20
2018-12-30T01:44:46.016Z,92.30
2018-12-30T01:47:14.764Z,92.20
2018-12-30T01:49:44.020Z,92.60
2018-12-30T01:52:12.658Z,92.60
2018-12-30T01:54:41.318Z,92.70
2018-12-30T01:57:09.986Z,92.80
2018-12-30T01:59:38.649Z,92.50
2018-12-30T02:02:07.477Z,92.40
2018-12-30T02:04:36.148Z,92.30
2018-12-30T02:07:04.804Z,92.40
2018-12-30T02:09:33.448Z,92.60
2018-12-30T02:12:02.111Z,92.10
2018-12-30T02:14:30.738Z,92.10
2018-12-30T02:16:59.391Z,92.10
2018-12-30T02:19:28.043Z,92.30
2018-12-30T02:21:57.098Z,92.30
2018-12-30T02:24:25.750Z,92.50
2018-12-30T02:26:54.412Z,92.50
2018-12-30T02:29:23.090Z,92.30
2018-12-30T02:31:51.762Z,92.50
2018-12-30T02:34:20.680Z,92.50
2018-12-30T02:36:49.337Z,92.60
2018-12-30T02:39:17.975Z,92.70
2018-12-30T02:41:46.635Z,92.70
2018-12-30T02:44:15.283Z,92.70
2018-12-30T02:46:43.958Z,92.80
2018-12-30T02:49:12.626Z,92.70
2018-12-30T02:51:50.074Z,92.50
2018-12-30T02:54:11.597Z,92.40
2018-12-30T02:56:40.365Z,92.60
2018-12-30T02:59:09.267Z,92.80
2018-12-30T03:01:37.922Z,92.90
2018-12-30T03:04:06.569Z,92.80
2018-12-30T03:06:35.208Z,92.80
2018-12-30T03:09:06.817Z,92.90
2018-12-30T03:11:35.456Z,93.10
2018-12-30T03:14:04.027Z,93.00
2018-12-30T03:16:33.265Z,92.90
2018-12-30T03:19:01.962Z,93.00
2018-12-30T03:21:30.595Z,93.00
2018-12-30T03:23:59.471Z,93.00
2018-12-30T03:26:28.131Z,93.00
2018-12-30T03:28:56.775Z,92.80
2018-12-30T03:31:25.435Z,93.00
2018-12-30T03:33:54.082Z,93.20
2018-12-30T03:36:23.314Z,93.30
2018-12-30T03:38:51.974Z,93.30
2018-12-30T03:41:20.616Z,93.10
2018-12-30T03:43:49.282Z,93.30
2018-12-30T03:46:17.925Z,93.20
2018-12-30T03:48:46.566Z,93.00
2018-12-30T03:51:15.216Z,93.30
2018-12-30T03:53:43.851Z,93.50
2018-12-30T03:56:12.509Z,93.10
2018-12-30T03:58:41.154Z,93.10
2018-12-30T04:01:09.842Z,93.10
2018-12-30T04:03:38.493Z,93.10
2018-12-30T04:06:07.129Z,93.10
2018-12-30T04:08:35.725Z,93.30
2018-12-30T04:11:04.389Z,93.20
2018-12-30T04:13:33.060Z,93.30
2018-12-30T04:16:01.712Z,93.40
2018-12-30T04:18:30.375Z,93.40
2018-12-30T04:20:59.032Z,93.50
2018-12-30T04:23:27.657Z,93.40
2018-12-30T04:25:56.357Z,93.10
2018-12-30T04:28:24.995Z,93.20
2018-12-30T04:30:53.657Z,93.30
2018-12-30T04:33:22.306Z,93.30
2018-12-30T04:35:50.981Z,93.10
2018-12-30T04:38:20.158Z,93.20
2018-12-30T04:40:48.801Z,93.40
2018-12-30T04:43:17.451Z,92.90
2018-12-30T04:45:46.100Z,93.10
2018-12-30T04:48:16.335Z,93.10
2018-12-30T04:50:45.420Z,93.20
2018-12-30T04:53:14.069Z,93.20
2018-12-30T04:55:42.725Z,93.20
2018-12-30T04:58:11.349Z,93.30
2018-12-30T05:00:40.037Z,93.20
2018-12-30T05:03:08.695Z,93.00
2018-12-30T05:05:37.354Z,93.30
2018-12-30T05:08:06.013Z,92.90
2018-12-30T05:10:34.667Z,93.30
2018-12-30T05:13:03.347Z,93.00
2018-12-30T05:15:32.002Z,92.80
2018-12-30T05:18:00.696Z,92.80
2018-12-30T05:20:29.421Z,93.00
2018-12-30T05:22:58.059Z,92.80
2018-12-30T05:25:26.715Z,93.00
2018-12-30T05:27:55.288Z,92.90
2018-12-30T05:30:23.949Z,92.60
2018-12-30T05:32:52.616Z,92.60
2018-12-30T05:35:21.290Z,92.60
2018-12-30T05:37:49.953Z,92.50
2018-12-30T05:40:18.594Z,92.70
2018-12-30T05:42:47.255Z,92.80
2018-12-30T05:45:15.895Z,92.40
2018-12-30T05:47:44.566Z,92.50
2018-12-30T05:50:13.220Z,92.30
2018-12-30T05:52:42.293Z,92.40
2018-12-30T05:55:11.216Z,92.30
2018-12-30T05:57:39.858Z,92.30
2018-12-30T06:00:08.911Z,92.40
2018-12-30T06:02:37.589Z,92.30
2018-12-30T06:05:07.835Z,92.20
2018-12-30T06:07:36.521Z,92.10
2018-12-30T06:10:05.472Z,92.10
2018-12-30T06:12:34.138Z,91.90
2018-12-30T06:15:03.026Z,92.00
2018-12-30T06:17:31.676Z,92.20
2018-12-30T06:20:00.381Z,91.90
2018-12-30T06:22:29.028Z,91.90
2018-12-30T06:24:57.663Z,91.50
2018-12-30T06:27:26.353Z,91.80
2018-12-30T06:29:55.011Z,92.40
2018-12-30T06:32:23.681Z,91.90
2018-12-30T06:34:52.336Z,92.00
2018-12-30T06:37:20.988Z,92.00
2018-12-30T06:39:49.622Z,92.00
2018-12-30T06:42:18.274Z,91.70
2018-12-30T06:44:46.957Z,91.70
2018-12-30T06:47:15.615Z,91.80
2018-12-30T06:49:44.313Z,91.90
2018-12-30T06:52:12.892Z,92.10
2018-12-30T06:54:41.581Z,91.90
2018-12-30T06:57:10.577Z,91.90
2018-12-30T06:59:42.133Z,91.70
2018-12-30T07:02:11.469Z,91.40
2018-12-30T07:04:40.136Z,91.30
2018-12-30T07:07:08.897Z,91.40
2018-12-30T07:09:37.546Z,91.40
2018-12-30T07:12:06.213Z,91.30
2018-12-30T07:14:34.868Z,91.10
2018-12-30T07:17:03.520Z,91.00
2018-12-30T07:19:32.180Z,91.00
2018-12-30T07:22:00.834Z,91.10
2018-12-30T07:24:31.157Z,91.00
2018-12-30T07:26:59.859Z,91.00
2018-12-30T07:29:28.500Z,90.60
2018-12-30T07:31:57.142Z,91.10
2018-12-30T07:34:25.783Z,91.00
2018-12-30T07:36:54.442Z,91.00
2018-12-30T07:39:23.138Z,90.90
2018-12-30T07:41:51.781Z,91.00
2018-12-30T07:44:20.442Z,90.80
2018-12-30T07:46:49.110Z,91.10
2018-12-30T07:49:17.791Z,91.00
2018-12-30T07:51:46.429Z,90.70
2018-12-30T07:54:15.053Z,90.70
2018-12-30T07:56:43.736Z,90.70
2018-12-30T07:59:12.401Z,90.70
2018-12-30T08:01:41.077Z,90.40
2018-12-30T08:04:09.873Z,90.40
2018-12-30T08:06:38.524Z,89.90
2018-12-30T08:09:07.718Z,90.00
2018-12-30T08:11:36.483Z,89.80
2018-12-30T08:14:05.255Z,90.00
2018-12-30T08:16:34.025Z,89.20
2018-12-30T08:19:02.804Z,89.00
2018-12-30T08:21:31.521Z,89.70
2018-12-30T08:24:00.200Z,89.80
2018-12-30T08:26:28.926Z,89.10
2018-12-30T08:28:57.566Z,89.00
2018-12-30T08:31:26.219Z,88.80
2018-12-30T08:33:54.918Z,89.20
2018-12-30T08:36:25.174Z,90.20
2018-12-30T08:38:53.833Z,88.80
2018-12-30T08:41:22.720Z,89.40
2018-12-30T08:43:51.474Z,88.80
2018-12-30T08:46:20.109Z,88.00
2018-12-30T08:48:49.746Z,88.40
2018-12-30T08:51:18.711Z,89.10
2018-12-30T08:53:47.499Z,88.80
2018-12-30T08:56:16.197Z,88.40
2018-12-30T08:58:46.173Z,88.10
2018-12-30T09:01:14.830Z,88.00
2018-12-30T09:03:43.518Z,88.50
2018-12-30T09:06:12.180Z,89.10
2018-12-30T09:08:40.869Z,89.60
2018-12-30T09:11:09.512Z,90.00
2018-12-30T09:13:41.177Z,88.40
2018-12-30T09:16:09.824Z,88.60
2018-12-30T09:18:38.490Z,89.00
2018-12-30T09:21:07.160Z,89.40
2018-12-30T09:23:37.526Z,88.00
2018-12-30T09:26:06.168Z,88.20
2018-12-30T09:28:34.822Z,88.70
2018-12-30T09:31:03.478Z,88.00
2018-12-30T09:33:32.128Z,88.20
2018-12-30T09:36:00.778Z,88.60
2018-12-30T09:38:29.400Z,89.30
2018-12-30T09:40:58.050Z,88.90
2018-12-30T09:43:26.708Z,88.70
2018-12-30T09:45:55.397Z,88.90
2018-12-30T09:48:24.069Z,88.30
2018-12-30T09:50:52.721Z,87.80
2018-12-30T09:53:21.403Z,87.40
2018-12-30T09:55:50.118Z,87.80
2018-12-30T09:58:18.805Z,88.70
2018-12-30T10:00:47.619Z,88.40
2018-12-30T10:03:16.313Z,87.80
2018-12-30T10:05:45.227Z,87.50
2018-12-30T10:08:13.832Z,87.80
2018-12-30T10:10:42.469Z,87.80
2018-12-30T10:13:11.149Z,88.00
2018-12-30T10:15:39.813Z,87.60
2018-12-30T10:18:08.499Z,87.80
2018-12-30T10:20:37.147Z,87.50
2018-12-30T10:23:05.799Z,86.90
2018-12-30T10:25:34.456Z,87.10
2018-12-30T10:28:03.104Z,87.40
2018-12-30T10:30:32.021Z,88.00
2018-12-30T10:33:00.678Z,87.80
2018-12-30T10:35:29.353Z,88.30
2018-12-30T10:37:58.003Z,88.20
2018-12-30T10:40:26.675Z,87.80
2018-12-30T10:42:55.367Z,88.30
2018-12-30T10:45:24.024Z,88.20
2018-12-30T10:47:52.675Z,88.00
2018-12-30T10:50:21.342Z,87.90
2018-12-30T10:52:49.987Z,87.50
2018-12-30T10:55:19.094Z,87.50
2018-12-30T10:57:47.761Z,87.30
2018-12-30T11:00:16.386Z,87.80
2018-12-30T11:02:46.589Z,88.20
2018-12-30T11:05:15.222Z,88.10
2018-12-30T11:07:44.163Z,88.70
2018-12-30T11:10:12.804Z,89.10
2018-12-30T11:12:41.462Z,89.10
2018-12-30T11:15:10.120Z,88.80
2018-12-30T11:17:38.773Z,88.80
2018-12-30T11:20:07.543Z,88.50
2018-12-30T11:22:36.193Z,88.30
2018-12-30T11:25:05.389Z,88.20
2018-12-30T11:27:34.034Z,88.30
2018-12-30T11:30:02.700Z,88.40
2018-12-30T11:32:31.355Z,88.30
2018-12-30T11:35:02.364Z,88.20
2018-12-30T11:37:31.026Z,89.10
2018-12-30T11:39:59.704Z,89.10
2018-12-30T11:42:28.402Z,89.50
2018-12-30T11:44:57.109Z,89.30
2018-12-30T11:47:25.781Z,89.10
2018-12-30T11:49:55.421Z,89.60
2018-12-30T11:52:24.069Z,89.60
2018-12-30T11:54:52.728Z,89.50
2018-12-30T11:57:21.403Z,90.00
2018-12-30T11:59:50.091Z,90.00
2018-12-30T12:02:23.942Z,90.30
2018-12-30T12:04:49.072Z,90.30
2018-12-30T12:07:17.724Z,90.20
2018-12-30T12:09:46.394Z,90.20
2018-12-30T12:12:15.050Z,90.30
2018-12-30T12:14:43.705Z,89.90
2018-12-30T12:17:12.885Z,89.80
2018-12-30T12:19:41.553Z,89.90
2018-12-30T12:22:10.227Z,90.20
2018-12-30T12:24:38.897Z,90.40
2018-12-30T12:27:07.549Z,90.60
2018-12-30T12:29:36.187Z,90.80
2018-12-30T12:32:04.834Z,90.70
2018-12-30T12:34:33.559Z,91.00
2018-12-30T12:37:02.214Z,90.90
2018-12-30T12:39:30.869Z,90.80
2018-12-30T12:41:59.503Z,91.10
2018-12-30T12:44:28.171Z,91.10
2018-12-30T12:46:57.408Z,91.20
2018-12-30T12:49:26.049Z,91.20
2018-12-30T12:51:54.719Z,91.40
2018-12-30T12:54:23.461Z,91.30
2018-12-30T12:56:52.117Z,91.20
2018-12-30T12:59:21.139Z,91.20
2018-12-30T13:01:49.824Z,91.10
2018-12-30T13:04:18.468Z,91.00
2018-12-30T13:06:47.146Z,90.80
2018-12-30T13:09:15.785Z,91.10
2018-12-30T13:11:44.462Z,91.00
2018-12-30T13:14:13.128Z,90.80
2018-12-30T13:16:41.826Z,90.70
2018-12-30T13:19:10.482Z,90.70
2018-12-30T13:21:39.322Z,90.90
2018-12-30T13:24:07.972Z,90.90
2018-12-30T13:26:36.644Z,91.20
2018-12-30T13:29:05.304Z,91.30
2018-12-30T13:31:33.952Z,91.40
2018-12-30T13:34:03.050Z,91.40
2018-12-30T13:36:31.697Z,91.40
2018-12-30T13:39:00.352Z,91.10
2018-12-30T13:41:28.984Z,91.20
2018-12-30T13:43:57.657Z,91.10
2018-12-30T13:46:26.335Z,91.30
2018-12-30T13:48:54.979Z,91.40
2018-12-30T13:51:24.158Z,91.50
2018-12-30T13:53:52.816Z,91.50
2018-12-30T13:56:21.483Z,91.50
2018-12-30T13:58:50.127Z,91.40
2018-12-30T14:01:18.790Z,91.30
2018-12-30T14:03:47.452Z,91.60
2018-12-30T14:06:16.101Z,91.60
2018-12-30T14:08:44.813Z,91.60
2018-12-30T14:11:13.448Z,92.10
2018-12-30T14:13:42.091Z,91.80
2018-12-30T14:16:10.757Z,91.40
2018-12-30T14:18:39.395Z,91.40
2018-12-30T14:21:08.040Z,91.20
2018-12-30T14:23:36.702Z,91.20
2018-12-30T14:26:05.771Z,91.20
2018-12-30T14:28:34.418Z,91.10
2018-12-30T14:31:03.100Z,91.10
2018-12-30T14:33:31.693Z,91.20
2018-12-30T14:36:00.338Z,91.10
2018-12-30T14:38:29.005Z,91.10
2018-12-30T14:40:57.637Z,91.00
2018-12-30T14:43:26.366Z,91.00
2018-12-30T14:45:55.027Z,90.80
2018-12-30T14:48:23.690Z,91.00
2018-12-30T14:50:52.344Z,91.10
2018-12-30T14:53:20.998Z,91.30
2018-12-30T14:55:49.658Z,91.30
2018-12-30T14:58:18.378Z,91.10
2018-12-30T15:00:47.726Z,91.20
2018-12-30T15:03:16.625Z,91.10
2018-12-30T15:05:45.267Z,91.20
2018-12-30T15:08:13.936Z,91.20
2018-12-30T15:10:42.615Z,91.40
2018-12-30T15:13:11.258Z,91.30
2018-12-30T15:15:39.892Z,91.00
2018-12-30T15:18:08.880Z,90.90
2018-12-30T15:20:37.532Z,90.70
2018-12-30T15:23:06.180Z,90.90
2018-12-30T15:25:34.866Z,91.00
2018-12-30T15:28:03.518Z,90.90
2018-12-30T15:30:32.151Z,90.70
2018-12-30T15:33:01.987Z,91.00
2018-12-30T15:35:30.619Z,90.90
2018-12-30T15:37:59.255Z,90.90
2018-12-30T15:40:27.899Z,90.70
2018-12-30T15:42:59.381Z,91.20
2018-12-30T15:45:28.040Z,90.80
2018-12-30T15:47:56.692Z,90.90
2018-12-30T15:50:25.346Z,90.90
2018-12-30T15:52:54.272Z,91.00
2018-12-30T15:55:24.523Z,90.80
2018-12-30T15:57:53.210Z,90.70
2018-12-30T16:00:22.018Z,90.50
2018-12-30T16:02:50.689Z,90.60
2018-12-30T16:05:21.778Z,90.80
2018-12-30T16:07:50.445Z,90.60
2018-12-30T16:10:19.398Z,90.70
2018-12-30T16:12:49.868Z,90.50
2018-12-30T16:15:18.543Z,90.80
2018-12-30T16:17:48.745Z,90.70
2018-12-30T16:20:17.455Z,90.70
2018-12-30T16:22:46.098Z,90.80
2018-12-30T16:25:14.786Z,90.70
2018-12-30T16:27:43.759Z,90.90
2018-12-30T16:30:12.398Z,90.60
2018-12-30T16:32:41.052Z,90.80
2018-12-30T16:35:09.708Z,91.10
2018-12-30T16:37:38.372Z,91.20
2018-12-30T16:40:07.048Z,91.20
2018-12-30T16:42:35.728Z,91.00
2018-12-30T16:45:05.438Z,91.20
2018-12-30T16:47:41.584Z,91.20
2018-12-30T16:50:06.094Z,91.20
2018-12-30T16:52:34.757Z,91.10
2018-12-30T16:55:03.481Z,91.10
2018-12-30T16:57:32.146Z,91.00
2018-12-30T17:00:00.924Z,91.00
2018-12-30T17:02:31.205Z,90.90
2018-12-30T17:04:59.943Z,91.10
2018-12-30T17:07:28.598Z,91.10
2018-12-30T17:09:57.240Z,90.80
2018-12-30T17:12:25.894Z,91.00
2018-12-30T17:14:54.592Z,91.10
2018-12-30T17:17:23.244Z,91.10
2018-12-30T17:19:52.586Z,90.70
2018-12-30T17:22:21.277Z,90.50
2018-12-30T17:24:50.661Z,90.60
2018-12-30T17:27:19.560Z,90.30
2018-12-30T17:29:48.463Z,90.40
2018-12-30T17:32:17.121Z,90.50
2018-12-30T17:34:45.774Z,90.60
2018-12-30T17:37:14.645Z,90.80
2018-12-30T17:39:43.315Z,90.80
2018-12-30T17:42:11.969Z,90.60
2018-12-30T17:44:40.617Z,90.60
2018-12-30T17:47:09.294Z,90.30
2018-12-30T17:49:37.950Z,90.60
2018-12-30T17:52:06.591Z,90.60
2018-12-30T17:54:35.332Z,90.50
2018-12-30T17:57:03.941Z,90.40
2018-12-30T17:59:32.607Z,90.50
2018-12-30T18:02:01.275Z,90.60
2018-12-30T18:04:29.924Z,90.60
2018-12-30T18:06:58.585Z,90.80
2018-12-30T18:09:27.255Z,91.00
2018-12-30T18:11:55.958Z,91.00
2018-12-30T18:14:24.621Z,91.20
2018-12-30T18:16:53.281Z,91.30
2018-12-30T18:19:21.950Z,91.50
2018-12-30T18:21:50.675Z,91.70
2018-12-30T18:24:19.459Z,91.60
2018-12-30T18:26:48.104Z,91.80
2018-12-30T18:29:17.320Z,91.70
2018-12-30T18:31:45.981Z,91.60
2018-12-30T18:34:16.201Z,91.70
2018-12-30T18:36:44.854Z,91.90
2018-12-30T18:39:13.519Z,92.00
2018-12-30T18:41:42.298Z,92.10
2018-12-30T18:44:11.137Z,92.00
2018-12-30T18:46:40.590Z,91.90
2018-12-30T18:49:10.775Z,91.90
2018-12-30T18:52:49.966Z,91.90
2018-12-30T18:55:18.631Z,92.00
2018-12-30T18:57:48.873Z,91.90
2018-12-30T19:00:22.188Z,91.80
2018-12-30T19:02:53.664Z,91.70
2018-12-30T19:05:22.908Z,91.60
2018-12-30T19:07:51.548Z,91.50
2018-12-30T19:10:20.259Z,91.40
2018-12-30T19:12:48.930Z,91.40
2018-12-30T19:15:17.603Z,91.20
2018-12-30T19:17:46.706Z,91.20
2018-12-30T19:20:15.352Z,91.30
2018-12-30T19:22:44.084Z,91.40
2018-12-30T19:25:12.751Z,91.40
2018-12-30T19:27:41.425Z,91.50
2018-12-30T19:30:11.344Z,91.50
2018-12-30T19:32:40.042Z,91.40
2018-12-30T19:35:08.767Z,91.40
2018-12-30T19:37:37.460Z,91.50
2018-12-30T19:40:09.086Z,91.70
2018-12-30T19:42:37.787Z,91.70
2018-12-30T19:45:07.034Z,91.60
2018-12-30T19:47:35.705Z,91.40
2018-12-30T19:50:06.299Z,91.40
2018-12-30T19:52:34.979Z,91.20
2018-12-30T19:55:03.991Z,91.30
2018-12-30T19:57:32.656Z,91.30
2018-12-30T20:00:01.312Z,91.30
2018-12-30T20:02:29.970Z,91.50
2018-12-30T20:04:58.736Z,91.20
2018-12-30T20:07:31.223Z,91.30
2018-12-30T20:10:01.506Z,91.20
2018-12-30T20:12:30.152Z,91.10
2018-12-30T20:14:58.851Z,91.10
2018-12-30T20:17:27.523Z,91.30
2018-12-30T20:19:56.603Z,91.50
2018-12-30T20:22:25.286Z,91.50
2018-12-30T20:24:53.999Z,91.60
2018-12-30T20:27:22.701Z,91.50
2018-12-30T20:29:51.353Z,91.50
2018-12-30T20:32:20.656Z,91.60
2018-12-30T20:34:49.324Z,91.40
2018-12-30T20:37:17.993Z,91.40
2018-12-30T20:39:49.677Z,91.30
2018-12-30T20:42:18.335Z,91.40
2018-12-30T20:44:47.282Z,91.30
2018-12-30T20:47:15.936Z,91.20
2018-12-30T20:49:47.277Z,91.10
2018-12-30T20:52:16.903Z,91.20
2018-12-30T20:54:45.573Z,91.40
2018-12-30T20:57:14.569Z,90.90
2018-12-30T20:59:43.288Z,91.10
2018-12-30T21:02:11.945Z,90.80
2018-12-30T21:04:40.596Z,91.00
2018-12-30T21:07:10.118Z,91.30
2018-12-30T21:09:40.536Z,91.10
2018-12-30T21:12:09.202Z,91.10
2018-12-30T21:14:37.864Z,91.10
2018-12-30T21:17:06.555Z,91.00
2018-12-30T21:19:35.214Z,91.10
2018-12-30T21:22:04.214Z,91.20
2018-12-30T21:24:32.918Z,91.20
2018-12-30T21:27:01.604Z,91.20
2018-12-30T21:29:30.333Z,91.30
2018-12-30T21:31:58.991Z,91.30
2018-12-30T21:34:27.696Z,91.50
2018-12-30T21:36:56.380Z,91.50
2018-12-30T21:39:25.392Z,91.70
2018-12-30T21:41:54.028Z,91.40
2018-12-30T21:44:22.731Z,91.40
2018-12-30T21:46:51.448Z,91.70
2018-12-30T21:49:20.102Z,91.50
2018-12-30T21:51:48.783Z,91.50
2018-12-30T21:54:17.432Z,91.60
2018-12-30T21:56:46.131Z,91.40
2018-12-30T21:59:15.047Z,91.10
2018-12-30T22:01:43.744Z,91.30
2018-12-30T22:04:12.413Z,91.40
2018-12-30T22:06:41.062Z,91.40
2018-12-30T22:09:09.785Z,91.60
2018-12-30T22:11:38.854Z,91.60
2018-12-30T22:14:07.515Z,91.60
2018-12-30T22:16:36.180Z,91.80
2018-12-30T22:19:04.849Z,91.70
2018-12-30T22:21:33.529Z,91.80
2018-12-30T22:24:02.222Z,91.90
2018-12-30T22:26:31.046Z,92.10
2018-12-30T22:28:59.740Z,92.20
2018-12-30T22:31:28.396Z,92.20
2018-12-30T22:33:57.052Z,91.90
2018-12-30T22:36:26.057Z,91.90
2018-12-30T22:38:54.721Z,92.10
2018-12-30T22:41:23.343Z,92.20
2018-12-30T22:43:52.081Z,92.20
2018-12-30T22:46:20.767Z,92.20
2018-12-30T22:48:49.524Z,92.00
2018-12-30T22:51:18.169Z,92.30
2018-12-30T22:53:46.840Z,92.40
2018-12-30T22:56:15.478Z,92.40
2018-12-30T22:58:44.126Z,92.50
2018-12-30T23:01:13.536Z,92.50
2018-12-30T23:03:42.178Z,92.30
2018-12-30T23:06:10.841Z,92.40
2018-12-30T23:08:39.505Z,92.30
2018-12-30T23:11:08.185Z,92.20
2018-12-30T23:13:37.325Z,92.20
2018-12-30T23:16:05.979Z,92.20
2018-12-30T23:18:34.640Z,92.00
2018-12-30T23:21:03.302Z,92.00
2018-12-30T23:23:31.974Z,91.90
2018-12-30T23:26:00.660Z,91.90
2018-12-30T23:28:29.338Z,92.00
2018-12-30T23:30:57.989Z,91.90
2018-12-30T23:33:26.633Z,91.80
2018-12-30T23:35:55.280Z,91.80
2018-12-30T23:38:23.970Z,91.80
2018-12-30T23:40:52.594Z,92.00
2018-12-30T23:43:21.176Z,92.00
2018-12-30T23:45:49.848Z,91.90
2018-12-30T23:48:20.155Z,91.80
2018-12-30T23:50:48.951Z,92.00
2018-12-30T23:53:17.596Z,92.00
2018-12-30T23:55:46.249Z,91.80
2018-12-30T23:58:14.926Z,91.80
